Time;durP1;ratioP1;P1;durP2;ratioP2;P2;SDS_P1;SDS_P2;PMS_P1;PMS_P2;Temp;Humidity;BMP_temperature;BMP_pressure;BME280_temperature;BME280_humidity;BME280_pressure;Samples;Min_cycle;Max_cycle;Signal;HPM_P1;HPM_P2
2023/05/27 00:02:00;;;;;;;6.32;5.25;;;;;;;16.49;68.28;95002.41;5004153;28;20191;-70
2023/05/27 00:04:26;;;;;;;6.13;5.53;;;;;;;16.41;69.24;94997.22;5005368;28;20214;-68
2023/05/27 00:06:51;;;;;;;6.53;5.70;;;;;;;16.40;69.89;95003.53;5004419;28;20894;-69
2023/05/27 00:09:16;;;;;;;7.90;6.57;;;;;;;16.40;70.14;95003.53;5002705;28;20226;-69
2023/05/27 00:11:42;;;;;;;7.13;6.43;;;;;;;16.35;70.44;95001.44;4999451;28;20231;-69
2023/05/27 00:14:07;;;;;;;7.15;6.22;;;;;;;16.34;70.48;94994.50;5003938;28;20187;-69
2023/05/27 00:16:36;;;;;;;7.90;5.85;;;;;;;16.33;70.92;94998.16;5003206;28;20191;-69
2023/05/27 00:19:02;;;;;;;7.15;6.45;;;;;;;16.36;70.02;95003.13;5002741;28;20227;-69
2023/05/27 00:21:28;;;;;;;5.63;4.70;;;;;;;16.30;69.40;94993.22;5004453;28;20237;-69
2023/05/27 00:23:53;;;;;;;3.58;3.28;;;;;;;16.35;68.64;95000.63;5005349;28;20233;-70
2023/05/27 00:26:19;;;;;;;3.05;2.75;;;;;;;16.34;67.24;94993.69;5006553;28;20207;-70
2023/05/27 00:28:44;;;;;;;2.60;2.40;;;;;;;16.27;66.90;94983.00;5007630;28;20241;-69
2023/05/27 00:31:09;;;;;;;2.88;2.20;;;;;;;16.24;67.44;94994.81;5005564;28;20227;-69
2023/05/27 00:33:35;;;;;;;3.90;3.10;;;;;;;16.19;68.07;94991.88;5000643;28;20237;-69
2023/05/27 00:36:00;;;;;;;4.03;3.63;;;;;;;16.09;68.78;94986.03;5005632;28;20231;-70
2023/05/27 00:38:26;;;;;;;4.72;3.90;;;;;;;16.12;68.76;94990.16;5008573;28;20226;-69
2023/05/27 00:40:53;;;;;;;4.60;3.90;;;;;;;16.08;68.52;94979.13;5005978;28;20189;-69
2023/05/27 00:43:19;;;;;;;3.58;3.28;;;;;;;15.92;68.88;94968.72;5011012;28;20250;-69
2023/05/27 00:45:44;;;;;;;3.30;2.80;;;;;;;15.95;69.00;94963.84;5006383;28;20242;-69
2023/05/27 00:48:10;;;;;;;3.47;3.17;;;;;;;15.95;69.21;94968.34;5009209;28;20223;-69
2023/05/27 00:50:36;;;;;;;3.10;2.80;;;;;;;15.99;68.78;94961.69;5005664;28;20223;-69
2023/05/27 00:53:02;;;;;;;2.80;2.60;;;;;;;15.98;67.63;94958.19;5010494;28;20191;-69
2023/05/27 00:55:28;;;;;;;2.50;2.30;;;;;;;16.08;68.30;94949.94;5006643;28;20298;-69
2023/05/27 00:57:54;;;;;;;3.53;3.10;;;;;;;16.08;68.69;94945.44;5010089;28;20249;-69
2023/05/27 01:00:22;;;;;;;2.58;2.38;;;;;;;16.08;69.36;94949.94;5007443;28;20219;-69
2023/05/27 01:02:49;;;;;;;2.40;2.20;;;;;;;16.12;68.87;94943.25;5010051;28;20242;-68
2023/05/27 01:05:16;;;;;;;2.17;1.98;;;;;;;16.03;68.60;94939.88;5003953;28;20214;-68
2023/05/27 01:08:01;;;;;;;1.65;1.55;;;;;;;16.05;68.07;94937.06;5006765;28;20188;-69
2023/05/27 01:10:33;;;;;;;1.70;1.60;;;;;;;16.17;67.49;94935.56;5000332;28;20686;-68
2023/05/27 01:13:01;;;;;;;1.83;1.70;;;;;;;16.15;68.34;94932.28;5006750;28;20253;-68
2023/05/27 01:15:28;;;;;;;1.70;1.60;;;;;;;16.06;69.10;94928.91;5010753;28;20222;-68
2023/05/27 01:18:01;;;;;;;2.35;1.98;;;;;;;15.95;70.49;94918.78;5005373;28;20238;-68
2023/05/27 01:20:29;;;;;;;2.00;1.80;;;;;;;15.87;70.80;94922.34;4999695;28;20328;-68
2023/05/27 01:22:57;;;;;;;1.85;1.75;;;;;;;15.87;71.60;94914.41;5006594;28;20546;-69
2023/05/27 01:25:23;;;;;;;2.10;1.90;;;;;;;15.90;71.45;94910.56;4992716;28;20238;-69
2023/05/27 01:27:49;;;;;;;2.28;2.08;;;;;;;15.91;71.78;94914.06;5003767;28;20214;-69
2023/05/27 01:30:15;;;;;;;1.98;1.80;;;;;;;15.92;71.24;94897.13;5000444;28;20254;-69
2023/05/27 01:32:53;;;;;;;1.95;1.85;;;;;;;15.94;71.57;94903.88;5003068;28;20270;-69
2023/05/27 01:35:28;;;;;;;1.98;1.88;;;;;;;15.92;71.19;94894.47;5006416;28;20237;-68
2023/05/27 01:37:55;;;;;;;2.78;1.95;;;;;;;15.97;71.37;94900.03;5008674;28;20245;-68
2023/05/27 01:40:21;;;;;;;2.47;2.28;;;;;;;15.92;72.12;94897.13;5007371;28;20231;-68
2023/05/27 01:42:47;;;;;;;2.20;2.03;;;;;;;15.97;71.77;94892.91;5008777;28;20215;-67
2023/05/27 01:45:13;;;;;;;2.47;2.28;;;;;;;15.91;72.11;94892.84;5007749;28;20254;-68
2023/05/27 01:47:39;;;;;;;1.70;1.60;;;;;;;15.85;72.15;94884.63;5007714;28;20313;-68
2023/05/27 01:50:05;;;;;;;1.70;1.60;;;;;;;15.85;72.60;94889.09;5009514;28;20261;-68
2023/05/27 01:52:31;;;;;;;1.80;1.70;;;;;;;15.78;72.75;94888.22;5001409;28;20288;-68
2023/05/27 01:54:56;;;;;;;1.88;1.67;;;;;;;15.79;72.78;94898.59;5000483;28;20289;-69
2023/05/27 01:57:25;;;;;;;1.90;1.80;;;;;;;15.85;72.31;94902.34;5005181;28;21173;-69
2023/05/27 01:59:50;;;;;;;1.92;1.77;;;;;;;15.81;71.64;94895.78;5009511;28;20225;-69
2023/05/27 02:02:16;;;;;;;2.38;1.88;;;;;;;15.80;71.71;94899.47;5007027;28;20187;-69
2023/05/27 02:04:41;;;;;;;2.05;1.85;;;;;;;15.77;71.92;94895.34;5005136;28;20183;-69
2023/05/27 02:07:07;;;;;;;2.08;1.88;;;;;;;15.73;71.90;94902.03;5008619;28;20261;-69
2023/05/27 02:09:32;;;;;;;2.15;1.95;;;;;;;15.65;72.12;94900.25;5007479;28;20265;-69
2023/05/27 02:11:58;;;;;;;2.22;2.03;;;;;;;15.59;71.62;94898.34;5009240;28;20226;-68
2023/05/27 02:14:23;;;;;;;2.05;1.90;;;;;;;15.66;72.37;94895.78;5003002;28;20271;-68
2023/05/27 02:16:49;;;;;;;2.63;2.42;;;;;;;15.57;72.62;94897.72;5007597;28;20183;-68
2023/05/27 02:19:15;;;;;;;1.92;1.80;;;;;;;15.56;72.55;94895.28;5008833;28;20223;-68
2023/05/27 02:21:41;;;;;;;2.05;1.85;;;;;;;15.60;71.70;94900.00;5006663;28;20222;-68
2023/05/27 02:24:06;;;;;;;2.47;1.83;;;;;;;15.58;72.05;94895.88;5009379;28;20222;-68
2023/05/27 02:26:32;;;;;;;2.10;1.90;;;;;;;15.52;72.64;94888.69;5008048;28;20235;-68
2023/05/27 02:28:57;;;;;;;2.35;1.92;;;;;;;15.54;72.22;94894.63;5006249;28;20183;-68
2023/05/27 02:31:23;;;;;;;3.13;2.20;;;;;;;15.51;72.29;94889.69;5007263;28;20269;-69
2023/05/27 02:33:48;;;;;;;2.22;1.92;;;;;;;15.52;72.67;94901.94;5000582;28;20236;-68
2023/05/27 02:36:14;;;;;;;3.80;2.65;;;;;;;15.56;72.81;94898.72;5005554;28;20703;-70
2023/05/27 02:38:39;;;;;;;2.72;2.20;;;;;;;15.62;72.83;94902.47;5002614;28;20258;-68
2023/05/27 02:41:05;;;;;;;2.72;2.47;;;;;;;15.66;72.41;94904.56;5008504;28;20179;-68
2023/05/27 02:43:30;;;;;;;2.60;2.40;;;;;;;15.62;72.02;94905.94;5005143;28;20234;-68
2023/05/27 02:45:56;;;;;;;2.55;2.30;;;;;;;15.57;72.66;94896.91;5004388;28;20250;-68
2023/05/27 02:48:21;;;;;;;3.08;2.47;;;;;;;15.56;72.68;94900.56;5008053;28;20211;-68
2023/05/27 02:50:47;;;;;;;2.83;2.53;;;;;;;15.49;73.20;94900.47;5006086;28;20223;-68
2023/05/27 02:53:12;;;;;;;3.08;2.78;;;;;;;15.46;72.97;94906.16;5008690;28;20607;-68
2023/05/27 02:55:38;;;;;;;2.60;2.40;;;;;;;15.41;72.64;94901.38;5001105;28;20183;-68
2023/05/27 02:58:06;;;;;;;2.13;1.92;;;;;;;15.44;72.33;94895.72;5007345;28;20230;-68
2023/05/27 03:00:33;;;;;;;2.47;2.28;;;;;;;15.58;72.17;94898.53;5003346;28;20386;-68
2023/05/27 03:02:58;;;;;;;2.30;2.10;;;;;;;15.54;71.20;94891.97;5006828;28;20361;-68
2023/05/27 03:05:24;;;;;;;2.47;1.88;;;;;;;15.49;71.48;94887.22;5004638;28;20246;-68
2023/05/27 03:07:49;;;;;;;1.98;1.63;;;;;;;15.55;70.80;94883.00;5001052;28;20187;-68
2023/05/27 03:10:15;;;;;;;2.30;2.10;;;;;;;15.46;71.04;94890.25;5007088;28;20226;-68
2023/05/27 03:12:40;;;;;;;2.63;2.40;;;;;;;15.53;70.82;94898.25;5005249;28;20215;-69
2023/05/27 03:15:06;;;;;;;2.78;2.40;;;;;;;15.56;70.56;94889.97;5002047;28;20377;-68
2023/05/27 03:17:36;;;;;;;2.17;2.00;;;;;;;15.63;70.32;94896.16;5002775;28;20227;-68
2023/05/27 03:20:01;;;;;;;2.08;1.90;;;;;;;15.61;70.15;94891.06;5002625;28;20652;-69
2023/05/27 03:22:26;;;;;;;2.65;2.25;;;;;;;15.67;70.00;94902.75;4999980;28;20262;-69
2023/05/27 03:24:53;;;;;;;2.28;1.83;;;;;;;15.65;70.48;94899.44;5001667;28;20298;-71
2023/05/27 03:27:19;;;;;;;1.95;1.75;;;;;;;15.63;70.56;94904.91;5004617;28;20219;-68
2023/05/27 03:29:45;;;;;;;2.75;2.45;;;;;;;15.59;71.41;94900.19;5005222;28;20226;-69
2023/05/27 03:32:10;;;;;;;3.22;2.22;;;;;;;15.60;71.90;94900.00;5003571;28;20196;-69
2023/05/27 03:34:36;;;;;;;2.42;2.22;;;;;;;15.63;71.60;94909.41;5006983;28;20192;-69
2023/05/27 03:37:01;;;;;;;2.58;2.30;;;;;;;15.62;71.69;94915.72;5006788;28;20463;-69
2023/05/27 03:39:27;;;;;;;2.40;2.20;;;;;;;15.57;72.30;94908.31;5003048;28;20226;-68
2023/05/27 03:41:52;;;;;;;3.30;2.60;;;;;;;15.66;72.00;94920.47;4999318;28;20273;-69
2023/05/27 03:44:17;;;;;;;5.03;2.85;;;;;;;15.67;71.57;94916.00;5004715;28;20257;-69
2023/05/27 03:46:43;;;;;;;3.67;2.58;;;;;;;15.64;71.79;94924.31;5004879;28;20186;-69
2023/05/27 03:49:08;;;;;;;4.50;4.10;;;;;;;15.69;72.03;94918.47;5003646;28;20309;-69
2023/05/27 03:51:35;;;;;;;3.75;3.38;;;;;;;15.72;71.81;94920.78;5007591;28;20218;-69
2023/05/27 03:54:00;;;;;;;3.45;2.88;;;;;;;15.71;71.94;94919.13;5007756;28;20233;-69
2023/05/27 03:56:26;;;;;;;4.00;3.45;;;;;;;15.70;71.43;94918.28;5005997;28;20222;-69
2023/05/27 03:58:52;;;;;;;3.47;3.17;;;;;;;15.60;72.29;94923.84;5002808;28;20608;-69
2023/05/27 04:01:17;;;;;;;4.60;3.53;;;;;;;15.62;71.95;94913.06;5004305;28;20219;-69
2023/05/27 04:03:43;;;;;;;7.22;4.10;;;;;;;15.73;71.91;94917.09;5008050;28;20241;-69
2023/05/27 04:06:09;;;;;;;4.10;3.70;;;;;;;15.75;71.64;94923.06;5004276;28;20759;-68
2023/05/27 04:08:37;;;;;;;3.70;3.40;;;;;;;15.78;71.26;94922.69;5008786;28;20226;-69
2023/05/27 04:11:02;;;;;;;4.10;3.80;;;;;;;15.85;71.10;94921.75;5004787;28;20190;-69
2023/05/27 04:13:28;;;;;;;4.80;4.30;;;;;;;15.85;71.39;94921.75;5008205;28;20218;-69
2023/05/27 04:15:53;;;;;;;5.13;4.63;;;;;;;15.82;71.22;94927.44;5009293;28;20215;-68
2023/05/27 04:18:20;;;;;;;4.75;4.20;;;;;;;15.86;71.00;94917.25;5008292;28;21096;-68
2023/05/27 04:20:47;;;;;;;4.45;4.05;;;;;;;15.85;71.00;94916.44;4995096;28;20274;-68
2023/05/27 04:23:12;;;;;;;4.20;3.80;;;;;;;15.94;70.64;94925.09;5007026;28;20194;-68
2023/05/27 04:25:39;;;;;;;5.35;4.20;;;;;;;16.00;70.35;94919.03;5008187;28;20182;-69
2023/05/27 04:28:05;;;;;;;4.53;3.83;;;;;;;16.00;69.89;94920.88;5010749;28;21650;-68
2023/05/27 04:30:34;;;;;;;4.57;4.07;;;;;;;16.06;69.62;94918.31;5009244;28;20227;-70
2023/05/27 04:33:00;;;;;;;3.95;3.55;;;;;;;16.06;69.54;94913.00;5008442;28;20538;-70
2023/05/27 04:35:26;;;;;;;3.55;3.25;;;;;;;16.08;69.68;94918.91;5004386;28;20283;-68
2023/05/27 04:37:52;;;;;;;4.68;3.90;;;;;;;16.18;69.16;94918.63;5011089;28;20711;-68
2023/05/27 04:40:18;;;;;;;4.28;3.88;;;;;;;16.22;69.12;94919.88;5009712;28;20231;-68
2023/05/27 04:42:44;;;;;;;4.50;3.45;;;;;;;16.28;68.83;94932.41;5037171;28;20548;-68
2023/05/27 04:45:13;;;;;;;4.30;3.88;;;;;;;16.26;68.67;94933.59;5006002;28;20227;-68
2023/05/27 04:47:40;;;;;;;3.70;3.33;;;;;;;16.23;68.53;94924.19;5010244;28;20219;-68
2023/05/27 04:50:10;;;;;;;3.90;3.50;;;;;;;16.30;68.52;94922.44;5007469;28;20194;-69
2023/05/27 04:52:41;;;;;;;4.68;3.58;;;;;;;16.39;68.41;94932.91;5006604;28;20270;-68
2023/05/27 04:55:09;;;;;;;4.30;3.90;;;;;;;16.41;68.62;94922.91;5006696;28;20321;-68
2023/05/27 04:57:36;;;;;;;4.68;4.10;;;;;;;16.49;69.01;94922.78;5008442;28;20230;-68
2023/05/27 05:02:34;;;;;;;4.60;3.80;;;;;;;16.51;68.67;94931.38;5004912;28;20226;-68
2023/05/27 05:05:04;;;;;;;4.32;3.83;;;;;;;16.52;68.58;94935.69;5003728;28;20190;-68
2023/05/27 05:07:29;;;;;;;4.00;3.42;;;;;;;16.50;68.18;94935.06;5008762;28;20214;-68
2023/05/27 05:09:55;;;;;;;3.35;2.97;;;;;;;16.52;68.03;94930.38;5006138;28;20221;-68
2023/05/27 05:12:20;;;;;;;3.22;2.83;;;;;;;16.48;68.00;94932.59;5007294;28;20226;-69
2023/05/27 05:14:46;;;;;;;3.53;2.83;;;;;;;16.57;67.54;94930.59;5007848;28;20308;-69
2023/05/27 05:17:11;;;;;;;3.17;2.88;;;;;;;16.46;68.37;94929.28;5003777;28;20550;-69
2023/05/27 05:19:36;;;;;;;4.05;3.08;;;;;;;16.45;67.88;94934.81;4999953;28;20203;-69
2023/05/27 05:22:02;;;;;;;3.33;2.95;;;;;;;16.56;67.36;94939.59;4989974;28;20223;-70
2023/05/27 05:24:27;;;;;;;3.17;2.88;;;;;;;16.61;66.81;94942.50;5007100;28;20219;-69
2023/05/27 05:26:53;;;;;;;3.33;2.80;;;;;;;16.69;66.29;94947.69;4993867;28;20273;-69
2023/05/27 05:29:18;;;;;;;3.40;3.10;;;;;;;16.75;66.53;94948.75;5009916;28;20672;-69
2023/05/27 05:31:45;;;;;;;2.63;2.20;;;;;;;16.72;66.62;94939.31;5008455;28;20186;-69
2023/05/27 05:34:11;;;;;;;3.45;2.50;;;;;;;16.80;66.27;94941.06;5008882;28;20231;-69
2023/05/27 05:36:36;;;;;;;3.42;2.72;;;;;;;16.86;66.47;94948.25;5006889;28;20295;-69
2023/05/27 05:39:03;;;;;;;3.63;2.28;;;;;;;16.89;66.32;94941.72;5002237;28;20316;-69
2023/05/27 05:41:28;;;;;;;2.78;2.55;;;;;;;16.92;66.43;94941.34;5007109;28;20227;-69
2023/05/27 05:43:54;;;;;;;2.85;2.38;;;;;;;16.99;65.79;94944.88;5004548;28;20194;-69
2023/05/27 05:46:19;;;;;;;3.08;2.78;;;;;;;17.06;65.84;94953.72;5008586;28;20249;-70
2023/05/27 05:48:45;;;;;;;2.90;2.30;;;;;;;17.08;65.89;94953.53;5005008;28;20220;-69
2023/05/27 05:51:10;;;;;;;3.63;2.55;;;;;;;17.16;65.24;94942.75;5004050;28;20266;-70
2023/05/27 05:53:36;;;;;;;3.08;2.85;;;;;;;17.20;65.09;94952.81;4970798;28;20293;-69
2023/05/27 05:56:01;;;;;;;2.70;2.40;;;;;;;17.22;65.10;94955.28;5001287;28;20245;-70
2023/05/27 05:58:27;;;;;;;2.65;2.45;;;;;;;17.09;64.86;94945.38;5004038;28;20231;-70
2023/05/27 06:00:52;;;;;;;4.03;2.35;;;;;;;17.21;64.66;94942.97;5004663;28;20706;-70
2023/05/27 06:03:18;;;;;;;2.58;2.38;;;;;;;17.22;64.40;94951.81;4998633;28;20396;-69
2023/05/27 06:05:43;;;;;;;3.03;2.72;;;;;;;17.24;64.56;94960.38;5005596;28;20234;-69
2023/05/27 06:08:09;;;;;;;3.70;2.40;;;;;;;17.36;64.11;94961.50;5005449;28;20195;-74
2023/05/27 06:10:35;;;;;;;3.20;2.72;;;;;;;17.42;64.21;94952.72;5006157;28;20613;-68
2023/05/27 06:13:00;;;;;;;3.53;2.50;;;;;;;17.42;64.63;94966.03;5007724;28;20215;-68
2023/05/27 06:15:26;;;;;;;4.38;2.97;;;;;;;17.41;64.44;94965.19;5004335;28;20580;-68
2023/05/27 06:17:53;;;;;;;3.97;2.83;;;;;;;17.43;64.38;94962.38;5006934;28;20238;-73
2023/05/27 06:20:19;;;;;;;3.25;2.88;;;;;;;17.38;64.33;94962.13;5008902;28;20191;-72
2023/05/27 06:22:47;;;;;;;3.97;2.97;;;;;;;17.37;64.95;94965.78;5008126;28;20197;-69
2023/05/27 06:25:12;;;;;;;3.78;2.92;;;;;;;17.46;64.65;94971.78;5006313;28;20223;-68
2023/05/27 06:27:38;;;;;;;2.70;2.50;;;;;;;17.50;64.07;94971.19;5006203;28;20211;-73
2023/05/27 06:30:04;;;;;;;3.47;2.80;;;;;;;17.58;63.76;94972.88;5008659;28;20235;-71
2023/05/27 06:32:29;;;;;;;3.65;3.08;;;;;;;17.55;63.86;94967.94;5003929;28;20230;-71
2023/05/27 06:34:55;;;;;;;3.30;3.00;;;;;;;17.45;64.28;94978.09;5009562;28;20190;-72
2023/05/27 06:37:20;;;;;;;3.60;3.28;;;;;;;17.40;64.22;94976.88;5006369;28;20226;-72
2023/05/27 06:39:46;;;;;;;3.38;3.08;;;;;;;17.43;64.68;94970.34;4999001;28;20227;-72
2023/05/27 06:42:11;;;;;;;4.28;3.70;;;;;;;17.49;64.69;94966.88;5007226;28;20219;-73
2023/05/27 06:44:37;;;;;;;4.82;3.28;;;;;;;17.55;64.60;94978.56;5004463;28;20225;-76
2023/05/27 06:47:02;;;;;;;3.20;2.90;;;;;;;17.62;64.41;94974.13;5004303;28;20277;-72
2023/05/27 06:49:28;;;;;;;3.95;3.47;;;;;;;17.66;64.35;94985.19;5019339;28;20219;-74
2023/05/27 06:51:54;;;;;;;4.15;3.53;;;;;;;17.70;64.67;94984.59;5005739;28;20312;-75
2023/05/27 06:54:19;;;;;;;4.03;3.63;;;;;;;17.59;64.63;94987.81;5002374;28;20235;-75
2023/05/27 06:56:45;;;;;;;4.10;3.65;;;;;;;17.68;64.37;94973.34;5000666;28;20706;-73
2023/05/27 06:59:13;;;;;;;5.63;3.67;;;;;;;17.73;64.30;94981.53;5008485;28;20207;-76
2023/05/27 07:01:38;;;;;;;4.57;3.72;;;;;;;17.87;64.11;94990.44;5003811;28;20191;-74
2023/05/27 07:04:04;;;;;;;4.60;3.90;;;;;;;17.92;63.93;94988.00;5002225;28;20231;-73
2023/05/27 07:06:29;;;;;;;4.55;3.90;;;;;;;17.92;63.54;94997.84;4999322;28;20214;-73
2023/05/27 07:08:55;;;;;;;4.05;3.60;;;;;;;17.90;63.97;94990.03;4999968;28;20223;-71
2023/05/27 07:11:21;;;;;;;5.90;4.78;;;;;;;18.00;64.02;94987.03;5008215;28;20378;-73
2023/05/27 07:13:47;;;;;;;4.55;3.78;;;;;;;17.90;64.55;94990.03;5005884;28;20420;-74
2023/05/27 07:16:12;;;;;;;4.75;3.95;;;;;;;17.99;64.34;94986.22;4997066;28;20309;-72
2023/05/27 07:18:37;;;;;;;4.55;3.78;;;;;;;18.01;64.23;94994.78;5001848;28;20251;-72
2023/05/27 07:21:03;;;;;;;5.03;4.28;;;;;;;17.99;64.05;94988.88;5004376;28;20593;-73
2023/05/27 07:23:28;;;;;;;4.15;3.75;;;;;;;17.99;63.80;94985.38;4994314;28;20223;-73
2023/05/27 07:25:54;;;;;;;6.13;4.40;;;;;;;17.96;63.82;94994.59;5001309;28;20181;-73
2023/05/27 07:28:19;;;;;;;4.90;4.20;;;;;;;17.91;63.25;94988.19;5006020;28;20215;-73
2023/05/27 07:30:44;;;;;;;6.68;4.10;;;;;;;17.97;62.95;94993.56;5004681;28;20219;-72
2023/05/27 07:33:10;;;;;;;5.13;4.43;;;;;;;17.91;63.19;95001.50;5005189;28;20231;-70
2023/05/27 07:35:36;;;;;;;4.75;4.18;;;;;;;17.88;63.30;94996.56;5003147;28;20302;-71
2023/05/27 07:38:02;;;;;;;4.25;3.85;;;;;;;18.02;63.07;95001.78;5004738;28;20230;-72
2023/05/27 07:40:28;;;;;;;5.43;4.72;;;;;;;17.92;62.53;94990.66;5005009;28;20301;-73
2023/05/27 07:42:56;;;;;;;5.57;4.40;;;;;;;17.99;63.03;94994.19;5001733;28;20302;-73
2023/05/27 07:45:22;;;;;;;4.75;3.78;;;;;;;18.20;62.29;94992.41;4999461;28;20226;-72
2023/05/27 07:47:48;;;;;;;4.75;4.28;;;;;;;18.33;62.39;94988.97;5004735;28;20682;-71
2023/05/27 07:50:14;;;;;;;5.25;4.10;;;;;;;18.48;61.63;94993.13;4999797;28;20322;-73
2023/05/27 07:52:40;;;;;;;5.63;4.88;;;;;;;18.65;61.05;95000.72;5000410;28;20541;-73
2023/05/27 07:55:08;;;;;;;4.68;4.07;;;;;;;18.59;60.37;94993.56;5001736;28;20313;-73
2023/05/27 07:57:33;;;;;;;4.20;3.78;;;;;;;18.78;59.69;94998.13;4991777;28;20250;-73
2023/05/27 07:59:59;;;;;;;5.80;4.00;;;;;;;18.73;59.59;95006.66;5003427;28;20353;-73
2023/05/27 08:02:25;;;;;;;4.20;3.75;;;;;;;18.73;59.80;95003.19;5007426;28;20285;-73
2023/05/27 08:04:51;;;;;;;5.20;3.95;;;;;;;18.83;59.96;95003.66;5003709;28;20213;-71
2023/05/27 08:07:17;;;;;;;4.57;3.83;;;;;;;18.88;59.92;95011.03;5000950;28;20357;-73
2023/05/27 08:09:43;;;;;;;3.88;3.47;;;;;;;18.85;59.07;95008.78;5005710;28;20222;-73
2023/05/27 08:12:08;;;;;;;5.00;3.20;;;;;;;18.93;58.64;95009.41;5002673;28;20234;-72
2023/05/27 08:14:34;;;;;;;4.30;3.58;;;;;;;18.97;58.82;95009.00;5004534;28;20306;-74
2023/05/27 08:17:00;;;;;;;3.95;3.63;;;;;;;18.97;57.97;95006.34;5004415;28;20199;-74
2023/05/27 08:19:26;;;;;;;3.88;3.20;;;;;;;18.95;57.93;95004.72;4998365;28;20731;-74
2023/05/27 08:21:52;;;;;;;5.53;3.47;;;;;;;18.88;59.73;95003.88;5005819;28;20214;-72
2023/05/27 08:24:20;;;;;;;4.35;2.90;;;;;;;19.02;59.37;95003.88;5007657;28;20222;-71
2023/05/27 08:26:47;;;;;;;4.65;3.10;;;;;;;19.08;58.99;95003.06;5006148;28;20227;-72
2023/05/27 08:29:12;;;;;;;4.18;2.95;;;;;;;19.18;58.00;95004.28;5007029;28;20179;-72
2023/05/27 08:31:38;;;;;;;3.00;2.70;;;;;;;19.32;56.05;95005.09;4998882;28;20287;-72
2023/05/27 08:34:03;;;;;;;3.78;2.85;;;;;;;19.41;55.45;95010.25;5005135;28;20633;-71
2023/05/27 08:36:29;;;;;;;3.00;2.75;;;;;;;19.50;54.47;95011.66;4998441;28;20461;-71
2023/05/27 08:38:56;;;;;;;3.42;2.60;;;;;;;19.53;54.98;95014.72;5003155;28;20724;-72
2023/05/27 08:41:21;;;;;;;3.08;2.78;;;;;;;19.52;54.45;95010.44;4999450;28;20544;-71
2023/05/27 08:43:47;;;;;;;5.15;2.75;;;;;;;19.53;54.68;95012.06;5005567;28;20855;-71
2023/05/27 08:46:13;;;;;;;4.13;3.05;;;;;;;19.55;54.07;95009.19;5006633;28;20717;-71
2023/05/27 08:48:40;;;;;;;5.13;3.33;;;;;;;19.41;54.80;95007.59;5003673;28;20226;-71
2023/05/27 08:51:06;;;;;;;2.53;2.33;;;;;;;19.30;54.87;95003.66;5005214;28;20225;-71
2023/05/27 08:53:32;;;;;;;3.35;2.92;;;;;;;19.33;54.40;95001.41;5003495;28;20222;-71
2023/05/27 08:56:01;;;;;;;3.42;2.72;;;;;;;19.37;54.08;94993.81;5002835;28;20240;-71
2023/05/27 08:58:27;;;;;;;2.88;2.58;;;;;;;19.41;55.21;94995.06;5008275;28;20285;-71
2023/05/27 09:00:53;;;;;;;2.97;2.67;;;;;;;19.39;55.47;94995.25;5009046;28;20365;-71
2023/05/27 09:03:19;;;;;;;3.20;2.78;;;;;;;19.52;53.83;94998.94;5004063;28;20742;-71
2023/05/27 09:05:44;;;;;;;2.92;2.72;;;;;;;19.49;53.50;94991.38;5006398;28;20226;-72
2023/05/27 09:08:10;;;;;;;3.97;2.70;;;;;;;19.59;53.14;94986.41;5009333;28;20203;-71
2023/05/27 09:10:40;;;;;;;3.10;2.90;;;;;;;19.61;54.16;94987.00;5009990;28;20194;-71
2023/05/27 09:13:06;;;;;;;3.30;3.00;;;;;;;19.50;52.89;94990.31;5007961;28;20222;-72
2023/05/27 09:15:33;;;;;;;3.30;3.00;;;;;;;19.49;53.36;94988.69;5006714;28;20272;-71
2023/05/27 09:17:58;;;;;;;3.53;3.08;;;;;;;19.68;52.96;94987.84;5007474;28;20234;-71
2023/05/27 09:20:28;;;;;;;3.33;3.03;;;;;;;19.69;53.36;94989.50;5006765;28;20195;-71
2023/05/27 09:23:01;;;;;;;3.60;3.30;;;;;;;19.86;53.42;94981.03;5008990;28;20314;-71
2023/05/27 09:25:27;;;;;;;3.38;3.10;;;;;;;19.91;53.04;94987.38;4988668;28;20719;-70
2023/05/27 09:27:54;;;;;;;3.35;3.05;;;;;;;19.98;52.84;94982.03;5005861;28;20223;-71
2023/05/27 09:30:21;;;;;;;4.00;3.60;;;;;;;20.06;52.97;94984.44;5008963;28;20309;-71
2023/05/27 09:32:46;;;;;;;3.17;2.88;;;;;;;20.16;52.00;94984.81;5007641;28;20246;-71
2023/05/27 09:35:14;;;;;;;3.13;2.85;;;;;;;20.20;51.98;94983.34;5003143;28;20194;-71
2023/05/27 09:37:40;;;;;;;3.30;3.00;;;;;;;20.22;51.26;94983.97;5003158;28;20211;-71
2023/05/27 09:40:10;;;;;;;3.25;2.95;;;;;;;19.87;52.46;94974.69;5008988;28;20961;-71
2023/05/27 09:42:47;;;;;;;3.75;2.92;;;;;;;20.00;52.16;94974.63;5006134;28;20265;-72
2023/05/27 09:45:17;;;;;;;3.20;2.90;;;;;;;20.24;51.46;94967.75;5001800;28;20327;-71
2023/05/27 09:47:53;;;;;;;3.50;3.20;;;;;;;20.54;51.52;94977.91;5003207;28;20365;-71
2023/05/27 09:50:21;;;;;;;3.28;2.97;;;;;;;20.70;50.69;94977.38;5005435;28;20179;-71
2023/05/27 09:52:48;;;;;;;3.50;3.20;;;;;;;20.71;51.60;94971.00;5007557;28;20189;-71
2023/05/27 09:55:14;;;;;;;3.50;3.20;;;;;;;20.64;52.10;94980.91;5008666;28;20223;-71
2023/05/27 09:57:41;;;;;;;4.70;3.40;;;;;;;20.73;51.38;94970.78;5008116;28;21574;-72
2023/05/27 10:00:17;;;;;;;5.13;2.88;;;;;;;21.13;50.47;94974.78;5003941;28;20222;-71
2023/05/27 10:02:47;;;;;;;3.28;2.90;;;;;;;21.55;49.00;94974.25;5007631;28;20222;-71
2023/05/27 10:05:15;;;;;;;4.18;3.40;;;;;;;22.02;47.64;94967.38;5000490;28;20183;-74
2023/05/27 10:07:42;;;;;;;3.67;3.40;;;;;;;21.54;47.72;94962.75;5007975;28;20590;-75
2023/05/27 10:10:11;;;;;;;3.15;2.85;;;;;;;21.67;48.25;94958.28;5002248;28;20215;-75
2023/05/27 10:12:38;;;;;;;3.47;3.17;;;;;;;21.88;47.07;94968.56;5011802;28;20227;-74
2023/05/27 10:15:05;;;;;;;3.63;3.33;;;;;;;22.12;46.70;94974.03;5007657;28;20278;-75
2023/05/27 10:17:48;;;;;;;3.28;3.00;;;;;;;22.49;46.44;94966.00;4998242;28;20585;-74
2023/05/27 10:20:35;;;;;;;4.32;3.30;;;;;;;22.72;46.21;94963.41;4989991;28;20188;-75
2023/05/27 10:23:17;;;;;;;3.15;2.85;;;;;;;22.80;44.38;94962.22;4988979;28;20702;-74
2023/05/27 10:25:47;;;;;;;3.35;3.08;;;;;;;22.64;45.13;94969.91;4999843;28;20679;-75
2023/05/27 10:28:29;;;;;;;3.58;3.28;;;;;;;22.56;45.80;94956.81;5000038;28;20270;-74
2023/05/27 10:31:08;;;;;;;3.70;3.38;;;;;;;22.20;46.97;94963.88;4990051;28;20226;-73
2023/05/27 10:33:38;;;;;;;3.58;3.05;;;;;;;22.27;45.93;94953.09;5002194;28;20315;-73
2023/05/27 10:36:22;;;;;;;3.03;2.75;;;;;;;22.06;48.01;94956.22;5003530;28;20215;-74
2023/05/27 10:38:59;;;;;;;3.03;2.83;;;;;;;22.50;46.29;94951.53;5003616;28;20301;-72
2023/05/27 10:41:25;;;;;;;3.38;3.08;;;;;;;22.76;45.33;94951.16;4987038;28;20282;-73
2023/05/27 10:43:58;;;;;;;3.22;2.72;;;;;;;22.92;45.05;94940.81;4992316;28;20219;-73
2023/05/27 10:46:25;;;;;;;8.30;7.50;;;;;;;22.92;45.17;94943.50;4995829;28;20246;-73
2023/05/27 10:48:51;;;;;;;3.75;3.40;;;;;;;23.03;43.20;94934.69;5006987;28;20227;-73
2023/05/27 10:51:17;;;;;;;3.70;2.92;;;;;;;23.08;43.46;94942.84;5008867;28;20230;-73
2023/05/27 10:53:42;;;;;;;3.47;3.17;;;;;;;23.11;44.04;94939.72;5007375;28;20235;-73
2023/05/27 10:56:08;;;;;;;4.15;3.75;;;;;;;22.99;43.38;94936.19;5006706;28;20202;-73
2023/05/27 10:58:38;;;;;;;3.00;2.80;;;;;;;22.59;45.16;94936.78;5002483;28;20210;-73
2023/05/27 11:01:15;;;;;;;3.40;3.10;;;;;;;22.67;45.75;94937.28;5008646;28;20218;-73
2023/05/27 11:03:45;;;;;;;3.53;3.22;;;;;;;22.83;44.16;94941.16;5002107;28;20233;-73
2023/05/27 11:06:12;;;;;;;3.15;2.90;;;;;;;22.90;44.18;94931.13;5003454;28;20229;-73
2023/05/27 11:08:38;;;;;;;2.95;2.67;;;;;;;22.72;44.50;94925.88;5007741;28;20446;-73
2023/05/27 11:11:09;;;;;;;3.67;3.38;;;;;;;22.86;44.51;94934.53;5005519;28;21153;-73
2023/05/27 11:13:43;;;;;;;2.70;2.50;;;;;;;22.96;44.07;94923.22;5004951;28;20226;-74
2023/05/27 11:16:09;;;;;;;3.25;3.05;;;;;;;23.04;43.45;94921.06;5007569;28;20299;-73
2023/05/27 11:18:38;;;;;;;3.63;3.33;;;;;;;23.19;43.74;94922.47;5001747;28;20361;-73
2023/05/27 11:21:05;;;;;;;3.05;2.80;;;;;;;23.46;43.09;94915.56;5001941;28;20222;-73
2023/05/27 11:23:43;;;;;;;2.97;2.70;;;;;;;23.45;43.10;94924.69;4997404;28;20323;-75
2023/05/27 11:26:16;;;;;;;3.20;2.90;;;;;;;23.62;42.27;94927.47;5003470;28;20269;-73
2023/05/27 11:28:50;;;;;;;3.20;2.90;;;;;;;23.89;42.02;94918.91;5002982;28;20185;-79
2023/05/27 11:31:16;;;;;;;3.15;2.95;;;;;;;23.97;42.48;94913.19;5003484;28;20243;-78
2023/05/27 11:33:43;;;;;;;3.50;3.20;;;;;;;24.08;41.97;94911.50;5002287;28;20238;-77
2023/05/27 11:36:12;;;;;;;3.30;2.90;;;;;;;24.20;40.61;94901.56;4999469;28;20227;-77